createdAt,value
2017-07-30T00:01:20.042Z,19.50
2017-07-30T00:03:47.672Z,19.60
2017-07-30T00:06:15.774Z,19.60
2017-07-30T00:08:43.374Z,19.50
2017-07-30T00:11:11.661Z,19.50
2017-07-30T00:13:39.169Z,19.50
2017-07-30T00:18:35.534Z,19.50
2017-07-30T00:21:03.826Z,19.50
2017-07-30T00:23:31.395Z,19.50
2017-07-30T00:25:59.059Z,19.40
2017-07-30T00:28:26.558Z,19.40
2017-07-30T00:30:54.848Z,19.40
2017-07-30T00:33:23.124Z,19.40
2017-07-30T00:35:51.415Z,19.30
2017-07-30T00:38:19.004Z,19.30
2017-07-30T00:40:47.464Z,19.30
2017-07-30T00:43:15.120Z,19.40
2017-07-30T00:45:43.798Z,19.40
2017-07-30T00:48:11.463Z,19.40
2017-07-30T00:50:39.727Z,19.40
2017-07-30T00:53:07.392Z,19.50
2017-07-30T00:55:35.051Z,19.50
2017-07-30T00:58:02.716Z,19.50
2017-07-30T01:00:30.362Z,19.50
2017-07-30T01:02:58.023Z,19.40
2017-07-30T01:05:25.703Z,19.40
2017-07-30T01:07:53.227Z,19.40
2017-07-30T01:10:20.817Z,19.40
2017-07-30T01:12:49.102Z,19.40
2017-07-30T01:15:16.599Z,19.40
2017-07-30T01:17:45.274Z,19.40
2017-07-30T01:20:13.586Z,19.40
2017-07-30T01:22:41.545Z,19.40
2017-07-30T01:25:09.218Z,19.30
2017-07-30T01:27:36.875Z,19.30
2017-07-30T01:30:04.402Z,19.30
2017-07-30T01:32:32.654Z,19.30
2017-07-30T01:35:00.926Z,19.30
2017-07-30T01:37:28.523Z,19.30
2017-07-30T01:39:56.047Z,19.30
2017-07-30T01:42:24.310Z,19.20
2017-07-30T01:44:52.222Z,19.20
2017-07-30T01:47:19.722Z,19.20
2017-07-30T01:49:47.446Z,19.20
2017-07-30T01:52:14.956Z,19.20
2017-07-30T01:54:43.783Z,19.20
2017-07-30T01:57:12.038Z,19.20
2017-07-30T01:59:40.115Z,19.20
2017-07-30T02:02:07.778Z,19.20
2017-07-30T02:04:35.278Z,19.30
2017-07-30T02:07:03.939Z,19.30
2017-07-30T02:09:31.430Z,19.30
2017-07-30T02:11:59.024Z,19.30
2017-07-30T02:14:27.087Z,19.30
2017-07-30T02:16:55.164Z,19.30
2017-07-30T02:19:22.823Z,19.30
2017-07-30T02:21:50.482Z,19.30
2017-07-30T02:24:18.145Z,19.30
2017-07-30T02:26:45.789Z,19.30
2017-07-30T02:29:13.351Z,19.30
2017-07-30T02:34:09.783Z,19.40
2017-07-30T02:36:37.279Z,19.40
2017-07-30T02:39:04.795Z,19.50
2017-07-30T02:41:32.291Z,19.50
2017-07-30T02:43:59.816Z,19.50
2017-07-30T02:46:28.096Z,19.50
2017-07-30T02:48:55.695Z,19.40
2017-07-30T02:51:23.211Z,19.40
2017-07-30T02:53:51.689Z,19.40
2017-07-30T02:56:19.761Z,19.50
2017-07-30T02:58:47.670Z,19.40
2017-07-30T03:01:15.163Z,19.40
2017-07-30T03:03:42.725Z,19.40
2017-07-30T03:06:10.235Z,19.50
2017-07-30T03:08:37.837Z,19.40
2017-07-30T03:11:06.115Z,19.40
2017-07-30T03:13:33.722Z,19.20
2017-07-30T03:16:01.431Z,19.30
2017-07-30T03:18:28.927Z,19.30
2017-07-30T03:20:57.219Z,19.30
2017-07-30T03:23:24.827Z,19.40
2017-07-30T03:25:53.487Z,19.40
2017-07-30T03:28:21.156Z,19.40
2017-07-30T03:30:49.452Z,19.50
2017-07-30T03:33:16.942Z,19.50
2017-07-30T03:35:45.974Z,19.50
2017-07-30T03:38:13.635Z,19.50
2017-07-30T03:40:41.301Z,19.50
2017-07-30T03:43:08.790Z,19.50
2017-07-30T03:45:36.408Z,19.50
2017-07-30T03:48:03.935Z,19.50
2017-07-30T03:50:32.211Z,19.50
2017-07-30T03:53:00.510Z,19.40
2017-07-30T03:55:28.023Z,19.40
2017-07-30T03:57:56.322Z,19.40
2017-07-30T04:00:23.995Z,19.40
2017-07-30T04:02:51.652Z,19.40
2017-07-30T04:05:19.311Z,19.20
2017-07-30T04:07:47.586Z,19.10
2017-07-30T04:10:15.246Z,19.10
2017-07-30T04:12:42.747Z,19.10
2017-07-30T04:15:10.259Z,19.10
2017-07-30T04:17:37.820Z,19.10
2017-07-30T04:20:05.483Z,19.00
2017-07-30T04:22:33.079Z,19.10
2017-07-30T04:25:00.786Z,19.10
2017-07-30T04:27:28.296Z,19.10
2017-07-30T04:29:55.899Z,19.10
2017-07-30T04:32:23.558Z,19.10
2017-07-30T04:34:51.118Z,19.10
2017-07-30T04:37:18.680Z,19.20
2017-07-30T04:39:46.330Z,19.20
2017-07-30T04:42:13.822Z,19.30
2017-07-30T04:44:41.323Z,19.30
2017-07-30T04:47:08.838Z,19.40
2017-07-30T04:49:36.338Z,19.40
2017-07-30T04:52:03.854Z,19.40
2017-07-30T04:54:31.350Z,19.50
2017-07-30T04:56:58.875Z,19.60
2017-07-30T04:59:26.759Z,19.70
2017-07-30T05:01:54.280Z,19.80
2017-07-30T05:04:21.775Z,19.80
2017-07-30T05:06:49.291Z,19.80
2017-07-30T05:09:16.790Z,19.80
2017-07-30T05:11:45.084Z,19.80
2017-07-30T05:14:12.583Z,19.80
2017-07-30T05:16:40.867Z,19.90
2017-07-30T05:19:09.502Z,20.00
2017-07-30T05:24:05.884Z,20.30
2017-07-30T05:26:33.382Z,20.30
2017-07-30T05:29:00.898Z,20.50
2017-07-30T05:31:28.798Z,20.50
2017-07-30T05:33:56.464Z,20.60
2017-07-30T05:36:23.963Z,20.70
2017-07-30T05:38:51.893Z,20.80
2017-07-30T05:41:19.788Z,20.90
2017-07-30T05:43:47.315Z,21.00
2017-07-30T05:46:14.815Z,21.20
2017-07-30T05:48:43.116Z,21.30
2017-07-30T05:51:11.766Z,21.40
2017-07-30T05:53:39.370Z,21.60
2017-07-30T05:56:06.885Z,21.80
2017-07-30T05:58:34.383Z,21.90
2017-07-30T06:01:02.665Z,22.10
2017-07-30T06:03:30.555Z,22.10
2017-07-30T06:05:58.080Z,22.20
2017-07-30T06:08:27.082Z,22.30
2017-07-30T06:10:55.004Z,22.40
2017-07-30T06:13:23.281Z,22.40
2017-07-30T06:15:51.186Z,22.40
2017-07-30T06:18:19.449Z,22.50
2017-07-30T06:20:46.950Z,22.50
2017-07-30T06:23:14.475Z,22.40
2017-07-30T06:25:41.967Z,22.30
2017-07-30T06:30:38.358Z,22.20
2017-07-30T06:33:05.879Z,22.20
2017-07-30T06:35:33.778Z,22.20
2017-07-30T06:38:01.303Z,22.20
2017-07-30T06:40:28.799Z,22.20
2017-07-30T06:42:56.319Z,22.20
2017-07-30T06:45:23.824Z,22.30
2017-07-30T06:47:51.330Z,22.30
2017-07-30T06:50:18.854Z,22.30
2017-07-30T06:52:46.347Z,22.30
2017-07-30T06:55:13.870Z,22.30
2017-07-30T06:57:41.770Z,22.20
2017-07-30T07:00:10.054Z,22.20
2017-07-30T07:02:38.325Z,22.20
2017-07-30T07:05:05.959Z,22.10
2017-07-30T07:07:33.451Z,22.20
2017-07-30T07:10:00.974Z,22.20
2017-07-30T07:12:28.463Z,22.20
2017-07-30T07:14:55.994Z,22.20
2017-07-30T07:17:23.489Z,22.20
2017-07-30T07:19:50.983Z,22.30
2017-07-30T07:22:19.263Z,22.40
2017-07-30T07:24:47.531Z,22.40
2017-07-30T07:27:15.808Z,22.50
2017-07-30T07:29:44.570Z,22.50
2017-07-30T07:32:12.093Z,22.60
2017-07-30T07:34:40.013Z,22.60
2017-07-30T07:37:07.959Z,22.60
2017-07-30T07:39:36.232Z,22.60
2017-07-30T07:42:03.759Z,22.70
2017-07-30T07:44:31.270Z,22.80
2017-07-30T07:46:58.795Z,22.70
2017-07-30T07:49:26.295Z,22.80
2017-07-30T07:51:54.222Z,23.00
2017-07-30T07:54:22.532Z,23.10
2017-07-30T07:56:50.030Z,23.30
2017-07-30T07:59:18.687Z,23.40
2017-07-30T08:01:46.223Z,23.50
2017-07-30T08:04:15.337Z,23.50
2017-07-30T08:06:43.238Z,23.70
2017-07-30T08:11:40.542Z,23.80
2017-07-30T08:14:08.207Z,23.90
2017-07-30T08:16:36.470Z,24.10
2017-07-30T08:19:04.007Z,24.30
2017-07-30T08:21:32.279Z,24.70
2017-07-30T08:24:00.562Z,25.10
2017-07-30T08:26:28.078Z,25.40
2017-07-30T08:28:57.193Z,25.60
2017-07-30T08:31:24.694Z,25.70
2017-07-30T08:33:52.219Z,25.90
2017-07-30T08:36:21.266Z,26.20
2017-07-30T08:38:48.763Z,26.50
2017-07-30T08:41:17.427Z,26.90
2017-07-30T08:43:45.327Z,27.10
2017-07-30T08:46:14.126Z,27.90
2017-07-30T08:48:41.637Z,28.70
2017-07-30T08:51:10.291Z,29.50
2017-07-30T08:53:37.925Z,30.10
2017-07-30T08:56:06.207Z,30.80
2017-07-30T08:58:33.754Z,31.00
2017-07-30T09:01:01.287Z,31.30
2017-07-30T09:03:28.955Z,31.70
2017-07-30T09:05:56.616Z,32.20
2017-07-30T09:08:25.106Z,32.60
2017-07-30T09:10:53.170Z,32.80
2017-07-30T09:13:21.446Z,33.30
2017-07-30T09:15:49.103Z,33.40
2017-07-30T09:18:16.662Z,33.50
2017-07-30T09:20:44.155Z,33.70
2017-07-30T09:25:42.035Z,33.70
2017-07-30T09:28:09.539Z,33.20
2017-07-30T09:30:37.795Z,33.50
2017-07-30T09:33:05.388Z,33.90
2017-07-30T09:35:33.027Z,34.20
2017-07-30T09:38:00.683Z,34.10
2017-07-30T09:40:29.379Z,34.30
2017-07-30T09:42:57.022Z,34.50
2017-07-30T09:45:24.538Z,34.10
2017-07-30T09:47:52.034Z,33.40
2017-07-30T09:50:19.562Z,32.80
2017-07-30T09:52:48.567Z,32.30
2017-07-30T09:55:16.092Z,32.00
2017-07-30T09:57:43.607Z,31.90
2017-07-30T10:00:11.138Z,32.40
2017-07-30T10:02:38.635Z,32.90
2017-07-30T10:05:06.183Z,33.30
2017-07-30T10:07:33.678Z,33.80
2017-07-30T10:10:02.327Z,34.40
2017-07-30T10:12:29.854Z,34.80
2017-07-30T10:14:57.750Z,35.10
2017-07-30T10:17:26.035Z,35.30
2017-07-30T10:19:54.302Z,35.50
2017-07-30T10:22:22.584Z,35.70
2017-07-30T10:24:50.485Z,35.30
2017-07-30T10:27:18.008Z,35.00
2017-07-30T10:29:45.501Z,34.70
2017-07-30T10:32:13.026Z,34.40
2017-07-30T10:34:40.522Z,34.30
2017-07-30T10:37:08.042Z,34.10
2017-07-30T10:39:36.315Z,33.90
2017-07-30T10:42:04.610Z,33.60
2017-07-30T10:44:32.125Z,33.40
2017-07-30T10:46:59.614Z,33.60
2017-07-30T10:49:27.131Z,33.60
2017-07-30T10:51:54.629Z,33.20
2017-07-30T10:54:23.283Z,32.80
2017-07-30T10:59:19.658Z,32.10
2017-07-30T11:01:47.156Z,31.70
2017-07-30T11:04:14.719Z,31.50
2017-07-30T11:06:42.215Z,31.30
2017-07-30T11:09:10.118Z,30.90
2017-07-30T11:11:37.627Z,30.60
2017-07-30T11:14:05.547Z,30.50
2017-07-30T11:16:33.055Z,30.40
2017-07-30T11:19:01.734Z,30.20
2017-07-30T11:21:30.376Z,30.20
2017-07-30T11:23:57.879Z,30.10
2017-07-30T11:26:25.404Z,30.10
2017-07-30T11:28:52.906Z,30.10
2017-07-30T11:31:20.429Z,30.00
2017-07-30T11:33:48.699Z,29.90
2017-07-30T11:36:16.611Z,29.80
2017-07-30T11:38:44.107Z,29.70
2017-07-30T11:41:11.635Z,29.70
2017-07-30T11:43:39.122Z,29.70
2017-07-30T11:46:07.414Z,29.60
2017-07-30T11:48:35.689Z,29.60
2017-07-30T11:51:03.603Z,29.50
2017-07-30T11:53:31.867Z,29.20
2017-07-30T11:56:00.212Z,29.00
2017-07-30T11:58:27.711Z,29.20
2017-07-30T12:00:55.210Z,29.30
2017-07-30T12:03:23.575Z,29.20
2017-07-30T12:05:51.084Z,29.30
2017-07-30T12:08:18.596Z,29.30
2017-07-30T12:10:46.875Z,29.10
2017-07-30T12:13:14.389Z,29.10
2017-07-30T12:15:41.882Z,29.20
2017-07-30T12:20:38.271Z,29.20
2017-07-30T12:23:05.791Z,29.20
2017-07-30T12:25:33.337Z,29.30
2017-07-30T12:28:00.841Z,29.30
2017-07-30T12:30:28.363Z,29.30
2017-07-30T12:32:55.891Z,29.30
2017-07-30T12:35:24.178Z,29.40
2017-07-30T12:37:51.689Z,29.30
2017-07-30T12:40:19.219Z,29.20
2017-07-30T12:42:46.715Z,29.30
2017-07-30T12:45:15.002Z,29.20
2017-07-30T12:47:42.511Z,29.20
2017-07-30T12:50:10.048Z,29.20
2017-07-30T12:55:06.414Z,29.10
2017-07-30T12:57:34.298Z,28.80
2017-07-30T13:00:01.820Z,28.70
2017-07-30T13:02:29.339Z,28.70
2017-07-30T13:04:57.982Z,28.70
2017-07-30T13:07:26.647Z,28.90
2017-07-30T13:09:54.163Z,28.90
2017-07-30T13:12:22.446Z,28.90
2017-07-30T13:14:49.938Z,28.90
2017-07-30T13:17:17.457Z,28.80
2017-07-30T13:19:44.963Z,28.70
2017-07-30T13:22:13.256Z,28.60
2017-07-30T13:24:40.758Z,28.60
2017-07-30T13:27:08.271Z,28.50
2017-07-30T13:29:36.172Z,28.50
2017-07-30T13:32:03.707Z,28.50
2017-07-30T13:34:31.599Z,28.60
2017-07-30T13:36:59.099Z,28.60
2017-07-30T13:39:26.627Z,28.70
2017-07-30T13:44:23.412Z,28.80
2017-07-30T13:46:50.916Z,28.80
2017-07-30T13:49:18.856Z,28.80
2017-07-30T13:51:47.514Z,28.70
2017-07-30T13:54:15.043Z,28.70
2017-07-30T13:56:42.548Z,28.80
2017-07-30T13:59:11.564Z,28.80
2017-07-30T14:01:39.459Z,28.90
2017-07-30T14:04:08.497Z,28.90
2017-07-30T14:06:36.030Z,29.00
2017-07-30T14:09:04.576Z,29.20
2017-07-30T14:11:32.095Z,29.20
2017-07-30T14:14:00.362Z,29.10
2017-07-30T14:16:27.884Z,29.20
2017-07-30T14:18:56.511Z,29.20
2017-07-30T14:21:24.422Z,29.20
2017-07-30T14:23:52.787Z,29.30
2017-07-30T14:26:20.308Z,29.40
2017-07-30T14:28:47.910Z,29.50
2017-07-30T14:31:16.191Z,29.60
2017-07-30T14:33:43.685Z,29.50
2017-07-30T14:36:11.243Z,29.40
2017-07-30T14:38:38.756Z,29.40
2017-07-30T14:41:06.672Z,29.30
2017-07-30T14:43:34.179Z,29.30
2017-07-30T14:46:02.081Z,29.30
2017-07-30T14:48:29.991Z,29.30
2017-07-30T14:50:58.255Z,29.30
2017-07-30T14:53:26.547Z,29.40
2017-07-30T14:55:55.299Z,29.50
2017-07-30T14:58:22.851Z,29.60
2017-07-30T15:00:50.765Z,29.60
2017-07-30T15:03:18.286Z,29.40
2017-07-30T15:05:46.922Z,29.40
2017-07-30T15:08:15.210Z,29.50
2017-07-30T15:10:43.492Z,29.30
2017-07-30T15:13:11.751Z,29.30
2017-07-30T15:15:40.781Z,29.30
2017-07-30T15:18:08.279Z,29.30
2017-07-30T15:23:04.683Z,29.10
2017-07-30T15:25:32.221Z,29.00
2017-07-30T15:28:00.161Z,29.00
2017-07-30T15:30:28.843Z,29.00
2017-07-30T15:32:56.343Z,29.00
2017-07-30T15:37:52.739Z,28.90
2017-07-30T15:40:20.364Z,29.00
2017-07-30T15:42:47.880Z,29.00
2017-07-30T15:45:15.390Z,29.00
2017-07-30T15:47:42.920Z,29.10
2017-07-30T15:50:10.453Z,29.10
2017-07-30T15:52:39.099Z,29.10
2017-07-30T15:55:07.362Z,29.20
2017-07-30T15:57:35.646Z,29.30
2017-07-30T16:00:03.539Z,29.30
2017-07-30T16:02:31.824Z,29.30
2017-07-30T16:05:00.469Z,29.30
2017-07-30T16:07:28.758Z,29.20
2017-07-30T16:09:56.263Z,29.20
2017-07-30T16:12:24.544Z,29.20
2017-07-30T16:14:52.042Z,29.10
2017-07-30T16:17:19.567Z,29.10
2017-07-30T16:19:47.837Z,29.00
2017-07-30T16:22:16.114Z,28.90
2017-07-30T16:24:44.423Z,28.90
2017-07-30T16:27:11.990Z,28.90
2017-07-30T16:29:39.513Z,28.80
2017-07-30T16:32:07.788Z,28.80
2017-07-30T16:34:35.695Z,28.80
2017-07-30T16:37:03.248Z,28.70
2017-07-30T16:39:31.163Z,28.70
2017-07-30T16:41:59.434Z,28.60
2017-07-30T16:44:27.369Z,28.70
2017-07-30T16:46:54.880Z,28.70
2017-07-30T16:49:22.438Z,28.60
2017-07-30T16:51:51.039Z,28.40
2017-07-30T16:54:18.565Z,28.00
2017-07-30T16:56:46.136Z,27.80
2017-07-30T16:59:13.634Z,27.50
2017-07-30T17:01:41.155Z,27.30
2017-07-30T17:04:09.057Z,27.20
2017-07-30T17:06:37.716Z,27.00
2017-07-30T17:09:05.612Z,27.00
2017-07-30T17:11:33.528Z,26.90
2017-07-30T17:14:01.023Z,26.70
2017-07-30T17:16:28.951Z,26.00
2017-07-30T17:18:57.675Z,25.00
2017-07-30T17:21:25.969Z,24.10
2017-07-30T17:23:53.899Z,23.30
2017-07-30T17:26:22.539Z,22.80
2017-07-30T17:28:50.843Z,22.30
2017-07-30T17:31:19.116Z,22.00
2017-07-30T17:33:46.642Z,22.00
2017-07-30T17:36:15.282Z,22.00
2017-07-30T17:38:42.810Z,21.90
2017-07-30T17:41:10.307Z,21.90
2017-07-30T17:43:38.987Z,22.00
2017-07-30T17:46:06.487Z,22.10
2017-07-30T17:48:34.006Z,22.00
2017-07-30T17:53:30.370Z,22.20
2017-07-30T17:55:58.267Z,22.30
2017-07-30T17:58:26.160Z,22.40
2017-07-30T18:00:54.082Z,22.50
2017-07-30T18:03:22.361Z,22.50
2017-07-30T18:05:49.883Z,22.50
2017-07-30T18:08:17.391Z,22.50
2017-07-30T18:10:45.312Z,22.60
2017-07-30T18:13:13.213Z,22.60
2017-07-30T18:15:40.734Z,22.60
2017-07-30T18:18:08.239Z,22.50
2017-07-30T18:20:35.755Z,22.40
2017-07-30T18:23:03.654Z,22.30
2017-07-30T18:25:31.938Z,22.10
2017-07-30T18:27:59.839Z,22.10
2017-07-30T18:30:27.787Z,22.00
2017-07-30T18:32:55.322Z,21.90
2017-07-30T18:35:22.931Z,21.80
2017-07-30T18:37:51.309Z,21.70
2017-07-30T18:40:19.719Z,21.70
2017-07-30T18:42:47.318Z,21.60
2017-07-30T18:45:15.412Z,21.40
2017-07-30T18:47:43.696Z,21.10
2017-07-30T18:50:11.746Z,20.90
2017-07-30T18:52:39.815Z,20.80
2017-07-30T18:55:07.703Z,20.60
2017-07-30T18:57:35.630Z,20.50
2017-07-30T19:02:32.710Z,20.30
2017-07-30T19:05:01.185Z,20.30
2017-07-30T19:09:57.691Z,20.30
2017-07-30T19:12:25.330Z,20.40
2017-07-30T19:14:53.261Z,20.40
2017-07-30T19:17:20.947Z,20.40
2017-07-30T19:19:49.398Z,20.40
2017-07-30T19:22:16.995Z,20.40
2017-07-30T19:27:13.370Z,20.40
2017-07-30T19:29:40.903Z,20.40
2017-07-30T19:32:09.175Z,20.40
2017-07-30T19:34:36.704Z,20.50
2017-07-30T19:37:04.226Z,20.50
2017-07-30T19:39:31.883Z,20.50
2017-07-30T19:41:59.550Z,20.50
2017-07-30T19:44:27.630Z,20.50
2017-07-30T19:46:55.259Z,20.50
2017-07-30T19:49:22.811Z,20.50
2017-07-30T19:51:51.212Z,20.60
2017-07-30T19:54:19.138Z,20.50
2017-07-30T19:56:47.477Z,20.50
2017-07-30T19:59:15.071Z,20.50
2017-07-30T20:01:43.739Z,20.50
2017-07-30T20:04:13.051Z,20.50
2017-07-30T20:06:41.026Z,20.50
2017-07-30T20:09:08.852Z,20.50
2017-07-30T20:11:36.375Z,20.50
2017-07-30T20:14:04.035Z,20.40
2017-07-30T20:16:32.908Z,20.40
2017-07-30T20:19:00.415Z,20.40
2017-07-30T20:21:28.018Z,20.30
2017-07-30T20:23:55.679Z,20.30
2017-07-30T20:28:52.459Z,20.30
2017-07-30T20:31:19.946Z,20.30
2017-07-30T20:33:48.364Z,20.20
2017-07-30T20:36:15.867Z,20.20
2017-07-30T20:38:43.431Z,20.20
2017-07-30T20:43:39.911Z,20.20
2017-07-30T20:46:07.479Z,20.10
2017-07-30T20:48:36.501Z,20.10
2017-07-30T20:51:04.007Z,20.10
2017-07-30T20:53:31.675Z,20.00
2017-07-30T20:55:59.743Z,20.10
2017-07-30T20:58:27.675Z,20.10
2017-07-30T21:00:56.141Z,20.10
2017-07-30T21:05:52.889Z,20.00
2017-07-30T21:08:20.999Z,20.00
2017-07-30T21:10:48.532Z,20.00
2017-07-30T21:13:17.162Z,20.10
2017-07-30T21:15:44.692Z,20.00
2017-07-30T21:18:12.362Z,20.10
2017-07-30T21:20:39.895Z,20.10
2017-07-30T21:23:08.707Z,20.10
2017-07-30T21:25:36.223Z,20.10
2017-07-30T21:28:03.727Z,20.10
2017-07-30T21:30:31.251Z,20.10
2017-07-30T21:32:58.747Z,20.00
2017-07-30T21:35:26.271Z,20.10
2017-07-30T21:37:53.850Z,20.00
2017-07-30T21:40:21.902Z,19.90
2017-07-30T21:42:49.587Z,19.90
2017-07-30T21:45:18.062Z,19.90
2017-07-30T21:47:46.346Z,19.90
2017-07-30T21:50:14.392Z,20.00
2017-07-30T21:52:42.672Z,20.10
2017-07-30T21:55:10.774Z,20.10
2017-07-30T21:57:38.382Z,20.00
2017-07-30T22:00:06.668Z,20.00
2017-07-30T22:02:34.227Z,19.90
2017-07-30T22:05:01.893Z,19.90
2017-07-30T22:07:29.582Z,19.90
2017-07-30T22:09:57.925Z,19.90
2017-07-30T22:12:25.455Z,20.00
2017-07-30T22:14:53.014Z,19.90
2017-07-30T22:17:20.674Z,19.90
2017-07-30T22:19:49.359Z,19.80
2017-07-30T22:22:17.052Z,19.80
2017-07-30T22:24:44.691Z,19.80
2017-07-30T22:27:12.580Z,19.70
2017-07-30T22:29:40.626Z,19.70
2017-07-30T22:32:08.907Z,19.60
2017-07-30T22:34:36.427Z,19.60
2017-07-30T22:37:03.995Z,19.40
2017-07-30T22:39:31.514Z,19.30
2017-07-30T22:44:28.197Z,19.30
2017-07-30T22:46:55.862Z,19.30
2017-07-30T22:49:23.938Z,19.40
2017-07-30T22:51:51.458Z,19.40
2017-07-30T22:54:19.734Z,19.30
2017-07-30T22:56:48.015Z,19.40
2017-07-30T22:59:15.598Z,19.40
2017-07-30T23:01:43.890Z,19.30
2017-07-30T23:04:11.783Z,19.40
2017-07-30T23:06:39.310Z,19.50
2017-07-30T23:09:07.203Z,19.40
2017-07-30T23:11:34.728Z,19.40
2017-07-30T23:14:04.407Z,19.50
2017-07-30T23:16:32.690Z,19.60
2017-07-30T23:19:00.557Z,19.60
2017-07-30T23:21:28.213Z,19.50
2017-07-30T23:23:56.119Z,19.50
2017-07-30T23:26:24.015Z,19.40
2017-07-30T23:28:51.611Z,19.40
2017-07-30T23:31:19.230Z,19.40
2017-07-30T23:33:47.895Z,19.40
2017-07-30T23:36:15.786Z,19.50
2017-07-30T23:38:43.696Z,19.50
2017-07-30T23:41:11.318Z,19.50
2017-07-30T23:43:38.983Z,19.50
2017-07-30T23:46:07.996Z,19.40
2017-07-30T23:48:36.283Z,19.40
2017-07-30T23:51:03.780Z,19.40
2017-07-30T23:53:31.274Z,19.40
2017-07-30T23:55:59.561Z,19.30
2017-07-30T23:58:27.602Z,19.30
